Arctic Bay — 9HTD8 — position and weather

sailwx.info

Track history (hours):
 
Tides and Currents Weather Stations Pressure Air Temp Water Temp Dewpoint Dewpoint Depression Visibility Wind Speed Wind Dir Waves Ship Positions

Arctic Bay

Last reported at 2016-Aug-29 03:31 UTC. Time now 2016-Aug-29 03:39 UTC.
Position N 46°09' W 001°15'.

Length 182 m; draft 12.5 m.

Type: Ship. MMSI: 256396000.

Date/timePositionNaut miles runAvg speedWind from/ knotsBaromVisibWave heightAir tempDewpointWater temp
2016-Aug-29 03:31N 46°09' W 001°15'0 0.0
2016-Aug-29 02:28N 46°09' W 001°15'0 0.0
2016-Aug-29 01:31N 46°09' W 001°15'0 0.0
2016-Aug-29 00:31N 46°09' W 001°15'0 0.0
2016-Aug-28 23:31N 46°09' W 001°15'0 0.0
2016-Aug-28 22:31N 46°09' W 001°15'0 0.0
2016-Aug-28 21:33N 46°09' W 001°15'3 3.4
2016-Aug-28 20:33N 46°06' W 001°16'1 1.1
2016-Aug-28 19:16N 46°05' W 001°17'0 0.2
2016-Aug-28 18:31N 46°05' W 001°17'0 0.1
2016-Aug-28 17:31N 46°05' W 001°17'0 0.0
2016-Aug-28 16:31N 46°05' W 001°17'0 0.0
2016-Aug-28 15:31N 46°05' W 001°17'0 0.1
2016-Aug-28 14:28N 46°05' W 001°17'0 0.0
2016-Aug-28 13:31N 46°05' W 001°17'0 0.0
2016-Aug-28 12:31N 46°05' W 001°17'0 0.0
2016-Aug-28 11:28N 46°05' W 001°17'0 0.0
2016-Aug-28 10:31N 46°05' W 001°17'0 0.0
2016-Aug-28 09:31N 46°05' W 001°17'0 0.0
2016-Aug-28 08:19N 46°05' W 001°17'0 0.0
2016-Aug-28 07:31N 46°05' W 001°17'0 0.0
2016-Aug-28 06:28N 46°05' W 001°17'0 0.2
2016-Aug-28 05:31N 46°05' W 001°17'0 0.0
2016-Aug-28 04:31N 46°05' W 001°17'0 0.0
2016-Aug-28 03:28N 46°05' W 001°17'0 0.0
2016-Aug-28 02:31N 46°05' W 001°17'0 0.1
2016-Aug-28 01:31N 46°05' W 001°17'0 0.1
2016-Aug-28 00:31N 46°05' W 001°17'0 0.0
2016-Aug-27 23:31N 46°05' W 001°17'0 0.0
2016-Aug-27 22:31N 46°05' W 001°17'0 0.0
2016-Aug-27 21:31N 46°05' W 001°17'0 0.0
2016-Aug-27 20:28N 46°05' W 001°17'0 0.0
2016-Aug-27 19:25N 46°05' W 001°17'0 0.0
2016-Aug-27 18:31N 46°05' W 001°17'0 0.2
2016-Aug-27 17:31N 46°05' W 001°17'0 0.1
2016-Aug-27 16:31N 46°05' W 001°17'0 0.0
2016-Aug-27 15:31N 46°05' W 001°17'0 0.0
2016-Aug-27 14:25N 46°05' W 001°17'0 0.1
2016-Aug-27 13:31N 46°05' W 001°17'0 0.1
2016-Aug-27 12:31N 46°05' W 001°17'0 0.0
2016-Aug-27 11:31N 46°05' W 001°17'0 0.0
2016-Aug-27 10:31N 46°05' W 001°17'0 0.2
2016-Aug-27 09:31N 46°05' W 001°17'7 7.7
2016-Aug-27 08:33N 46°07' W 001°27'1212.2
2016-Aug-27 07:33N 46°08' W 001°45'1413.7
2016-Aug-27 06:33N 46°05' W 002°04'2713.4
2016-Aug-27 04:33N 45°59' W 002°42'1813.6
2016-Aug-27 03:15N 45°56' W 003°07'913.1
2016-Aug-27 02:33N 45°54' W 003°20'  
Track history (hours):
 
Tides and Currents Weather Stations Pressure Air Temp Water Temp Dewpoint Dewpoint Depression Visibility Wind Speed Wind Dir Waves Ship Positions

Arctic Bay

Last reported at 2016-Aug-29 03:31 UTC. Time now 2016-Aug-29 03:39 UTC.
Position N 46°09' W 001°15'.

Length 182 m; draft 12.5 m.

Type: Ship. MMSI: 256396000.

Date/timePositionNaut miles runAvg speedWind from/ knotsBaromVisibWave heightAir tempDewpointWater temp
2016-Aug-29 03:31N 46°09' W 001°15'0 0.0
2016-Aug-29 02:28N 46°09' W 001°15'0 0.0
2016-Aug-29 01:31N 46°09' W 001°15'0 0.0
2016-Aug-29 00:31N 46°09' W 001°15'0 0.0
2016-Aug-28 23:31N 46°09' W 001°15'0 0.0
2016-Aug-28 22:31N 46°09' W 001°15'0 0.0
2016-Aug-28 21:33N 46°09' W 001°15'3 3.4
2016-Aug-28 20:33N 46°06' W 001°16'1 1.1
2016-Aug-28 19:16N 46°05' W 001°17'0 0.2
2016-Aug-28 18:31N 46°05' W 001°17'0 0.1
2016-Aug-28 17:31N 46°05' W 001°17'0 0.0
2016-Aug-28 16:31N 46°05' W 001°17'0 0.0
2016-Aug-28 15:31N 46°05' W 001°17'0 0.1
2016-Aug-28 14:28N 46°05' W 001°17'0 0.0
2016-Aug-28 13:31N 46°05' W 001°17'0 0.0
2016-Aug-28 12:31N 46°05' W 001°17'0 0.0
2016-Aug-28 11:28N 46°05' W 001°17'0 0.0
2016-Aug-28 10:31N 46°05' W 001°17'0 0.0
2016-Aug-28 09:31N 46°05' W 001°17'0 0.0
2016-Aug-28 08:19N 46°05' W 001°17'0 0.0
2016-Aug-28 07:31N 46°05' W 001°17'0 0.0
2016-Aug-28 06:28N 46°05' W 001°17'0 0.2
2016-Aug-28 05:31N 46°05' W 001°17'0 0.0
2016-Aug-28 04:31N 46°05' W 001°17'0 0.0
2016-Aug-28 03:28N 46°05' W 001°17'0 0.0
2016-Aug-28 02:31N 46°05' W 001°17'0 0.1
2016-Aug-28 01:31N 46°05' W 001°17'0 0.1
2016-Aug-28 00:31N 46°05' W 001°17'0 0.0
2016-Aug-27 23:31N 46°05' W 001°17'0 0.0
2016-Aug-27 22:31N 46°05' W 001°17'0 0.0
2016-Aug-27 21:31N 46°05' W 001°17'0 0.0
2016-Aug-27 20:28N 46°05' W 001°17'0 0.0
2016-Aug-27 19:25N 46°05' W 001°17'0 0.0
2016-Aug-27 18:31N 46°05' W 001°17'0 0.2
2016-Aug-27 17:31N 46°05' W 001°17'0 0.1
2016-Aug-27 16:31N 46°05' W 001°17'0 0.0
2016-Aug-27 15:31N 46°05' W 001°17'0 0.0
2016-Aug-27 14:25N 46°05' W 001°17'0 0.1
2016-Aug-27 13:31N 46°05' W 001°17'0 0.1
2016-Aug-27 12:31N 46°05' W 001°17'0 0.0
2016-Aug-27 11:31N 46°05' W 001°17'0 0.0
2016-Aug-27 10:31N 46°05' W 001°17'0 0.2
2016-Aug-27 09:31N 46°05' W 001°17'7 7.7
2016-Aug-27 08:33N 46°07' W 001°27'1212.2
2016-Aug-27 07:33N 46°08' W 001°45'1413.7
2016-Aug-27 06:33N 46°05' W 002°04'2713.4
2016-Aug-27 04:33N 45°59' W 002°42'1813.6
2016-Aug-27 03:15N 45°56' W 003°07'913.1
2016-Aug-27 02:33N 45°54' W 003°20'  

Dump ship's entire track history